Time;durP1;ratioP1;P1;durP2;ratioP2;P2;SDS_P1;SDS_P2;PMS_P1;PMS_P2;Temp;Humidity;BMP_temperature;BMP_pressure;BME280_temperature;BME280_humidity;BME280_pressure;Samples;Min_cycle;Max_cycle;Signal;HPM_P1;HPM_P2
2024/03/26 00:02:24;;;;;;;5.88;2.63;;;10.70;77.50;;;;;;4979128;28;20029;-87
2024/03/26 00:04:51;;;;;;;7.55;3.22;;;10.70;77.40;;;;;;5008941;28;20037;-87
2024/03/26 00:07:18;;;;;;;6.53;2.70;;;10.70;77.30;;;;;;5006432;28;20076;-88
2024/03/26 00:09:45;;;;;;;4.05;2.55;;;10.60;77.40;;;;;;5003851;28;20483;-87
2024/03/26 00:12:11;;;;;;;4.95;2.95;;;10.60;77.50;;;;;;5001882;28;20047;-86
2024/03/26 00:14:37;;;;;;;5.10;3.15;;;10.60;77.50;;;;;;4991162;28;20877;-88
2024/03/26 00:17:04;;;;;;;5.95;3.55;;;10.60;77.60;;;;;;4986507;28;20610;-88
2024/03/26 00:19:30;;;;;;;3.80;2.67;;;10.60;77.40;;;;;;4990187;28;20058;-89
2024/03/26 00:21:56;;;;;;;7.50;3.10;;;10.60;77.40;;;;;;4998243;28;20392;-86
2024/03/26 00:24:23;;;;;;;5.32;3.30;;;10.60;77.30;;;;;;4989852;28;20038;-85
2024/03/26 00:26:50;;;;;;;3.95;2.28;;;10.60;77.60;;;;;;4974833;28;20551;-87
2024/03/26 00:29:16;;;;;;;5.53;2.80;;;10.50;77.70;;;;;;5003311;28;20132;-87
2024/03/26 00:31:42;;;;;;;5.25;3.20;;;10.50;77.60;;;;;;5008518;28;20045;-86
2024/03/26 00:34:08;;;;;;;4.28;3.28;;;10.50;77.50;;;;;;5001045;28;20040;-87
2024/03/26 00:36:34;;;;;;;6.55;3.22;;;10.50;77.60;;;;;;4991324;28;20040;-87
2024/03/26 00:39:00;;;;;;;5.47;3.13;;;10.50;77.70;;;;;;4992584;28;20030;-87
2024/03/26 00:41:26;;;;;;;5.90;3.25;;;10.50;77.80;;;;;;5007810;28;20044;-87
2024/03/26 00:43:53;;;;;;;8.38;2.95;;;10.50;77.70;;;;;;4991195;28;20045;-86
2024/03/26 00:46:19;;;;;;;6.15;3.50;;;10.40;77.50;;;;;;5003356;27;20037;-87
2024/03/26 00:48:45;;;;;;;7.72;3.40;;;10.40;77.50;;;;;;5007375;28;20483;-88
2024/03/26 00:51:11;;;;;;;6.78;3.78;;;10.40;77.50;;;;;;5003301;28;20036;-87
2024/03/26 00:53:38;;;;;;;5.07;3.53;;;10.40;78.30;;;;;;4990841;28;20033;-86
2024/03/26 00:56:05;;;;;;;7.68;3.58;;;10.40;78.10;;;;;;5020524;27;20074;-86
2024/03/26 00:58:31;;;;;;;4.90;3.22;;;10.40;78.20;;;;;;5019033;28;20505;-86
2024/03/26 01:00:57;;;;;;;5.53;3.40;;;10.40;78.40;;;;;;5005802;28;20095;-85
2024/03/26 01:03:23;;;;;;;6.82;3.55;;;10.40;78.40;;;;;;5008150;28;20017;-86
2024/03/26 01:05:57;;;;;;;4.85;3.10;;;10.30;78.30;;;;;;5002456;28;20538;-84
2024/03/26 01:08:23;;;;;;;5.72;3.20;;;10.30;78.20;;;;;;5002567;28;20044;-84
2024/03/26 01:10:49;;;;;;;5.63;3.45;;;10.30;78.20;;;;;;4987459;28;20054;-84
2024/03/26 01:13:15;;;;;;;5.82;3.58;;;10.30;78.30;;;;;;5002997;28;20057;-85
2024/03/26 01:15:41;;;;;;;5.45;3.95;;;10.30;78.20;;;;;;4991731;28;20086;-85
2024/03/26 01:18:08;;;;;;;5.70;3.75;;;10.30;78.10;;;;;;4987687;28;20046;-86
2024/03/26 01:20:34;;;;;;;5.55;3.60;;;10.20;78.10;;;;;;4999079;28;20068;-85
2024/03/26 01:23:00;;;;;;;6.10;3.40;;;10.20;78.10;;;;;;4970621;28;20046;-86
2024/03/26 01:25:27;;;;;;;13.63;3.90;;;10.20;78.10;;;;;;5000934;28;20034;-85
2024/03/26 01:27:53;;;;;;;5.32;3.53;;;10.20;78.20;;;;;;4982598;28;20531;-85
2024/03/26 01:30:20;;;;;;;5.90;3.95;;;10.20;78.10;;;;;;4983333;28;20420;-85
2024/03/26 01:32:46;;;;;;;6.20;4.10;;;10.20;78.10;;;;;;4970342;28;20063;-86
2024/03/26 01:35:12;;;;;;;7.18;4.07;;;10.20;78.40;;;;;;4970728;28;20536;-85
2024/03/26 01:37:38;;;;;;;5.85;4.07;;;10.10;78.40;;;;;;4970769;28;20091;-85
2024/03/26 01:40:06;;;;;;;6.68;4.05;;;10.10;78.50;;;;;;4986796;28;20046;-84
2024/03/26 01:42:32;;;;;;;5.88;4.35;;;10.10;78.90;;;;;;4983175;28;20034;-83
2024/03/26 01:44:58;;;;;;;7.32;4.50;;;10.10;79.10;;;;;;4998702;28;20064;-83
2024/03/26 01:47:24;;;;;;;8.38;4.32;;;10.10;78.90;;;;;;5003075;28;20515;-83
2024/03/26 01:49:51;;;;;;;5.78;4.50;;;10.10;78.60;;;;;;4969524;28;20033;-84
2024/03/26 01:52:17;;;;;;;7.32;4.32;;;10.00;78.70;;;;;;4970748;28;20069;-87
2024/03/26 01:54:43;;;;;;;8.45;4.78;;;10.00;78.70;;;;;;4998937;28;20400;-87
2024/03/26 01:57:11;;;;;;;6.68;4.35;;;10.00;78.40;;;;;;4998861;28;20045;-87
2024/03/26 01:59:39;;;;;;;7.10;4.75;;;10.00;78.30;;;;;;5004987;28;20038;-87
2024/03/26 02:02:05;;;;;;;7.25;4.47;;;10.00;78.40;;;;;;4986705;28;20034;-87
2024/03/26 02:04:31;;;;;;;9.70;5.05;;;10.00;78.40;;;;;;4997983;28;20415;-87
2024/03/26 02:06:57;;;;;;;6.68;4.20;;;9.90;78.40;;;;;;4997699;28;20043;-88
2024/03/26 02:09:23;;;;;;;6.82;4.47;;;10.00;78.60;;;;;;4969865;28;20038;-88
2024/03/26 02:11:49;;;;;;;7.93;4.40;;;9.90;78.80;;;;;;4981850;28;20034;-83
2024/03/26 02:14:16;;;;;;;6.95;4.88;;;9.90;78.70;;;;;;4997038;28;20042;-84
2024/03/26 02:16:42;;;;;;;8.30;4.78;;;9.90;78.60;;;;;;4986809;28;20452;-89
2024/03/26 02:19:08;;;;;;;8.35;4.93;;;9.90;78.70;;;;;;4972647;28;20480;-89
2024/03/26 02:21:34;;;;;;;8.18;5.10;;;9.90;78.80;;;;;;4995226;28;20054;-89
2024/03/26 02:24:01;;;;;;;6.10;4.40;;;9.90;78.70;;;;;;4971559;28;20393;-90
2024/03/26 02:26:27;;;;;;;7.05;4.43;;;9.90;78.70;;;;;;4989441;28;20030;-88
2024/03/26 02:28:56;;;;;;;7.47;5.10;;;9.90;78.80;;;;;;4983153;28;20518;-89
2024/03/26 02:31:22;;;;;;;13.50;6.50;;;9.90;78.70;;;;;;4986753;28;20512;-89
2024/03/26 02:33:48;;;;;;;11.23;6.32;;;9.80;78.80;;;;;;4971285;28;20496;-88
2024/03/26 02:36:14;;;;;;;9.88;5.85;;;9.80;79.00;;;;;;4971031;28;20262;-88
2024/03/26 02:38:40;;;;;;;8.75;5.80;;;9.80;79.20;;;;;;4969933;28;20041;-87
2024/03/26 02:41:07;;;;;;;9.18;5.93;;;9.80;79.80;;;;;;5003333;28;20083;-87
2024/03/26 02:43:33;;;;;;;10.52;5.75;;;9.80;79.30;;;;;;5002388;28;20669;-87
2024/03/26 02:45:59;;;;;;;10.75;6.55;;;9.80;78.90;;;;;;5013984;28;20046;-87
2024/03/26 02:48:25;;;;;;;10.48;6.10;;;9.80;79.00;;;;;;4971051;28;20022;-87
2024/03/26 02:50:52;;;;;;;10.23;6.45;;;9.80;79.10;;;;;;4997323;28;20078;-89
2024/03/26 02:53:23;;;;;;;7.95;5.78;;;9.80;78.90;;;;;;4985826;28;20098;-88
2024/03/26 02:55:52;;;;;;;9.70;6.15;;;9.80;78.80;;;;;;4990912;28;20037;-88
2024/03/26 02:58:18;;;;;;;9.63;6.30;;;9.70;78.70;;;;;;5002120;28;20071;-88
2024/03/26 03:00:45;;;;;;;10.10;5.90;;;9.70;78.80;;;;;;4978260;28;20034;-90
2024/03/26 03:03:11;;;;;;;9.35;5.60;;;9.70;78.80;;;;;;5009736;28;20580;-89
2024/03/26 03:05:37;;;;;;;8.65;5.20;;;9.70;78.80;;;;;;4979374;28;20133;-88
2024/03/26 03:08:03;;;;;;;8.43;5.85;;;9.70;79.00;;;;;;4990047;28;20053;-88
2024/03/26 03:10:29;;;;;;;8.68;5.75;;;9.70;79.00;;;;;;5001188;28;20037;-88
2024/03/26 03:12:55;;;;;;;8.73;5.85;;;9.70;79.10;;;;;;5002468;28;20035;-85
2024/03/26 03:15:21;;;;;;;10.13;5.32;;;9.70;79.10;;;;;;4988038;28;20050;-82
2024/03/26 03:17:47;;;;;;;8.25;5.90;;;9.70;79.20;;;;;;5004196;28;20057;-84
2024/03/26 03:20:13;;;;;;;9.07;5.93;;;9.70;79.10;;;;;;5005562;28;20045;-87
2024/03/26 03:22:42;;;;;;;8.23;5.82;;;9.70;79.30;;;;;;4989746;28;20033;-88
2024/03/26 03:25:08;;;;;;;9.52;6.13;;;9.60;79.40;;;;;;4981038;28;20034;-87
2024/03/26 03:27:34;;;;;;;9.48;6.10;;;9.70;79.50;;;;;;5021304;28;20540;-86
2024/03/26 03:30:00;;;;;;;11.10;6.93;;;9.70;79.60;;;;;;4991254;28;20124;-86
2024/03/26 03:32:26;;;;;;;9.23;6.90;;;9.70;79.40;;;;;;5003239;28;20550;-81
2024/03/26 03:34:53;;;;;;;7.93;5.90;;;9.60;79.40;;;;;;5021584;27;20129;-82
2024/03/26 03:37:19;;;;;;;9.75;5.70;;;9.60;79.30;;;;;;5006141;28;20042;-82
2024/03/26 03:39:45;;;;;;;10.65;6.20;;;9.60;79.40;;;;;;4992451;28;20507;-82
2024/03/26 03:42:12;;;;;;;8.75;6.38;;;9.60;79.50;;;;;;5001873;28;20453;-86
2024/03/26 03:44:38;;;;;;;7.32;5.43;;;9.60;79.50;;;;;;4989997;28;20579;-83
2024/03/26 03:47:05;;;;;;;6.97;5.55;;;9.60;79.60;;;;;;4989683;28;20121;-85
2024/03/26 03:49:32;;;;;;;8.10;5.35;;;9.60;79.50;;;;;;4976286;28;20037;-84
2024/03/26 03:52:02;;;;;;;7.70;5.72;;;9.60;79.60;;;;;;4987050;28;20034;-84
2024/03/26 03:54:28;;;;;;;7.15;5.10;;;9.60;79.70;;;;;;5006504;28;20050;-85
2024/03/26 03:56:54;;;;;;;8.73;5.25;;;9.60;79.70;;;;;;4990987;28;20547;-86
2024/03/26 03:59:21;;;;;;;8.48;5.32;;;9.60;79.80;;;;;;4972791;28;20033;-86
2024/03/26 04:01:47;;;;;;;7.00;4.80;;;9.70;79.90;;;;;;4969924;28;20116;-84
2024/03/26 04:04:14;;;;;;;9.25;5.43;;;9.60;79.90;;;;;;5002432;28;20568;-77
2024/03/26 04:06:40;;;;;;;12.07;5.70;;;9.60;79.90;;;;;;5020390;27;20037;-76
2024/03/26 04:09:07;;;;;;;8.10;4.85;;;9.70;80.20;;;;;;5007535;28;20041;-77
2024/03/26 04:11:34;;;;;;;9.27;5.60;;;9.60;80.30;;;;;;5010986;28;20034;-76
2024/03/26 04:14:00;;;;;;;8.45;5.05;;;9.70;80.50;;;;;;5012126;28;20028;-76
2024/03/26 04:16:26;;;;;;;9.77;4.67;;;9.70;80.70;;;;;;5017230;28;20052;-77
2024/03/26 04:18:53;;;;;;;7.60;4.63;;;9.70;80.70;;;;;;5013769;28;20053;-76
2024/03/26 04:21:19;;;;;;;7.03;4.82;;;9.70;80.80;;;;;;5019365;27;20038;-76
2024/03/26 04:23:46;;;;;;;8.23;4.93;;;9.70;80.70;;;;;;5021126;27;20029;-76
2024/03/26 04:26:12;;;;;;;7.05;4.47;;;9.70;80.80;;;;;;5018658;28;20034;-76
2024/03/26 04:28:38;;;;;;;6.40;4.43;;;9.70;80.70;;;;;;5001197;28;20563;-75
2024/03/26 04:31:04;;;;;;;6.18;4.47;;;9.70;80.70;;;;;;5001526;28;20128;-76
2024/03/26 04:33:31;;;;;;;7.07;4.60;;;9.70;80.60;;;;;;5017836;28;20120;-76
2024/03/26 04:35:57;;;;;;;6.07;3.95;;;9.80;80.70;;;;;;5019538;27;20090;-75
2024/03/26 04:38:23;;;;;;;8.98;5.05;;;9.70;80.60;;;;;;5022909;27;20045;-75
2024/03/26 04:40:49;;;;;;;9.05;5.07;;;9.80;80.80;;;;;;5025082;28;20030;-76
2024/03/26 04:43:15;;;;;;;5.47;4.50;;;9.80;80.60;;;;;;5020281;28;20054;-75
2024/03/26 04:45:41;;;;;;;7.65;4.97;;;9.80;80.30;;;;;;5030543;28;20033;-76
2024/03/26 04:48:07;;;;;;;10.07;5.32;;;9.80;80.30;;;;;;5046834;28;20037;-76
2024/03/26 04:50:34;;;;;;;5.75;5.13;;;9.80;80.30;;;;;;5034477;28;20071;-76
2024/03/26 04:53:00;;;;;;;8.13;5.15;;;9.80;80.80;;;;;;5032989;28;20033;-76
2024/03/26 04:55:26;;;;;;;8.43;5.35;;;9.90;80.80;;;;;;5022760;28;20029;-75
2024/03/26 04:57:52;;;;;;;6.80;4.88;;;9.80;81.00;;;;;;5021575;28;20044;-76
2024/03/26 05:00:18;;;;;;;7.50;5.20;;;9.90;81.30;;;;;;5019319;28;20138;-75
2024/03/26 05:02:44;;;;;;;7.32;5.18;;;9.90;81.40;;;;;;5018519;28;20029;-75
2024/03/26 05:05:11;;;;;;;6.85;4.78;;;9.90;81.20;;;;;;5001371;28;20376;-75
2024/03/26 05:07:37;;;;;;;11.27;5.38;;;10.00;81.40;;;;;;5018018;27;20102;-75
2024/03/26 05:10:07;;;;;;;6.50;4.75;;;9.90;81.50;;;;;;4999765;28;20029;-74
2024/03/26 05:12:34;;;;;;;8.57;4.90;;;10.00;81.20;;;;;;5018007;27;20030;-75
2024/03/26 05:15:00;;;;;;;9.85;5.30;;;10.00;81.20;;;;;;4999079;28;20085;-74
2024/03/26 05:17:26;;;;;;;8.00;5.45;;;10.00;81.20;;;;;;5000218;28;20116;-74
2024/03/26 05:19:52;;;;;;;8.50;5.00;;;10.10;81.00;;;;;;5016864;27;20086;-75
2024/03/26 05:22:18;;;;;;;9.70;4.90;;;10.10;81.10;;;;;;5018526;28;20102;-74
2024/03/26 05:24:44;;;;;;;5.43;4.30;;;10.10;81.10;;;;;;5018385;27;20530;-74
2024/03/26 05:27:11;;;;;;;8.70;5.07;;;10.10;81.30;;;;;;5017535;27;20390;-75
2024/03/26 05:29:38;;;;;;;8.55;4.72;;;10.20;81.10;;;;;;5017861;27;20049;-76
2024/03/26 05:32:07;;;;;;;9.00;5.25;;;10.20;81.00;;;;;;5000729;28;20065;-75
2024/03/26 05:34:33;;;;;;;6.85;4.15;;;10.30;80.90;;;;;;5017911;28;20041;-75
2024/03/26 05:36:59;;;;;;;7.05;4.35;;;10.30;80.90;;;;;;5019235;28;20511;-75
2024/03/26 05:39:25;;;;;;;5.07;4.32;;;10.40;80.90;;;;;;4990747;28;20033;-74
2024/03/26 05:41:51;;;;;;;6.20;4.28;;;10.50;80.80;;;;;;5017879;28;20045;-73
2024/03/26 05:44:18;;;;;;;6.88;4.38;;;10.70;80.80;;;;;;5016906;28;20136;-75
2024/03/26 05:46:44;;;;;;;5.47;3.70;;;10.80;80.70;;;;;;5000055;28;20033;-73
2024/03/26 05:49:10;;;;;;;8.18;3.80;;;10.90;80.40;;;;;;5017827;28;20030;-73
2024/03/26 05:51:36;;;;;;;6.95;3.85;;;11.10;80.10;;;;;;5020468;27;20423;-73
2024/03/26 05:54:02;;;;;;;5.43;3.88;;;11.20;79.50;;;;;;5018179;28;20049;-74
2024/03/26 05:56:28;;;;;;;5.70;3.70;;;11.30;79.40;;;;;;5018374;28;20044;-74
2024/03/26 05:58:54;;;;;;;5.60;3.65;;;11.40;79.30;;;;;;4998740;28;20068;-76
2024/03/26 06:01:21;;;;;;;5.40;3.88;;;11.50;78.90;;;;;;5014886;27;20068;-74
2024/03/26 06:03:47;;;;;;;6.53;3.65;;;11.60;78.70;;;;;;5001848;28;20049;-74
2024/03/26 06:06:13;;;;;;;6.82;3.40;;;11.70;78.20;;;;;;5014856;28;20091;-74
2024/03/26 06:08:39;;;;;;;6.80;3.47;;;11.70;78.10;;;;;;5003338;28;20038;-74
2024/03/26 06:11:05;;;;;;;4.40;2.97;;;11.80;78.10;;;;;;5015676;28;20109;-75
2024/03/26 06:13:31;;;;;;;8.98;3.35;;;11.90;78.50;;;;;;4997355;28;20034;-74
2024/03/26 06:16:05;;;;;;;9.13;3.40;;;11.90;78.50;;;;;;5001223;28;20492;-74
2024/03/26 06:18:31;;;;;;;4.78;3.05;;;12.00;78.10;;;;;;4993550;28;20050;-74
2024/03/26 06:20:57;;;;;;;5.35;2.97;;;12.00;77.70;;;;;;4981973;28;20468;-74
2024/03/26 06:23:23;;;;;;;4.32;2.80;;;12.00;77.80;;;;;;4996116;28;20032;-75
2024/03/26 06:25:50;;;;;;;2.75;2.20;;;12.10;77.60;;;;;;4994870;28;20072;-74
2024/03/26 06:28:16;;;;;;;3.35;2.50;;;12.10;77.20;;;;;;4997180;28;21819;-74
2024/03/26 06:30:42;;;;;;;4.85;3.10;;;12.10;76.70;;;;;;4993577;28;20037;-74
2024/03/26 06:33:11;;;;;;;3.95;2.38;;;12.20;76.50;;;;;;5000068;28;20050;-74
2024/03/26 06:35:38;;;;;;;8.43;2.45;;;12.20;76.20;;;;;;4998976;28;20051;-74
2024/03/26 06:38:05;;;;;;;4.78;2.50;;;12.30;76.20;;;;;;4996867;28;20412;-74
2024/03/26 06:40:32;;;;;;;4.68;2.35;;;12.30;76.10;;;;;;4998420;28;20156;-74
2024/03/26 06:42:58;;;;;;;4.32;2.40;;;12.30;75.90;;;;;;5000533;28;20072;-73
2024/03/26 06:45:24;;;;;;;5.68;2.33;;;12.30;75.90;;;;;;4999020;28;20546;-74
2024/03/26 06:47:50;;;;;;;3.88;2.28;;;12.30;76.00;;;;;;4998957;28;20038;-74
2024/03/26 06:50:16;;;;;;;5.45;2.70;;;12.40;75.80;;;;;;5000300;28;20034;-75
2024/03/26 06:52:49;;;;;;;4.20;2.60;;;12.40;75.60;;;;;;4998306;28;20058;-74
2024/03/26 06:55:21;;;;;;;3.90;2.40;;;12.40;75.50;;;;;;4999603;28;20511;-74
2024/03/26 06:57:47;;;;;;;7.88;2.60;;;12.40;75.50;;;;;;4998125;28;20125;-74
2024/03/26 07:00:14;;;;;;;5.18;2.72;;;12.50;75.70;;;;;;4995474;28;20061;-74
2024/03/26 07:02:41;;;;;;;5.55;2.35;;;12.50;75.60;;;;;;5000607;28;20399;-75
2024/03/26 07:05:10;;;;;;;5.70;2.55;;;12.60;75.40;;;;;;4996819;28;20156;-75
2024/03/26 07:07:37;;;;;;;3.53;2.38;;;12.70;75.40;;;;;;5000411;28;20430;-73
2024/03/26 07:10:04;;;;;;;4.18;2.00;;;12.70;75.50;;;;;;5001814;28;20040;-75
2024/03/26 07:12:32;;;;;;;4.60;2.47;;;12.80;75.60;;;;;;5000828;28;20030;-74
2024/03/26 07:14:58;;;;;;;3.70;2.25;;;12.80;75.60;;;;;;4998099;28;20087;-73
2024/03/26 07:17:25;;;;;;;4.97;2.47;;;12.90;75.10;;;;;;5000660;28;20138;-75
2024/03/26 07:19:51;;;;;;;4.65;2.33;;;13.00;75.00;;;;;;5019176;28;20145;-75
2024/03/26 07:22:17;;;;;;;6.72;2.80;;;13.00;74.70;;;;;;5019561;28;20444;-75
2024/03/26 07:24:43;;;;;;;5.63;2.50;;;13.10;74.70;;;;;;4989579;28;20021;-74
2024/03/26 07:27:11;;;;;;;3.60;2.17;;;13.10;74.40;;;;;;5018028;28;20132;-75
2024/03/26 07:29:39;;;;;;;3.63;2.35;;;13.20;74.20;;;;;;5020862;28;20048;-75
2024/03/26 07:32:05;;;;;;;2.15;1.92;;;13.20;74.10;;;;;;5018856;28;20038;-74
2024/03/26 07:34:32;;;;;;;2.95;2.20;;;13.20;73.70;;;;;;5018346;27;20048;-74
2024/03/26 07:36:58;;;;;;;3.70;2.45;;;13.30;73.80;;;;;;5019631;27;20041;-74
2024/03/26 07:39:24;;;;;;;3.17;1.90;;;13.30;74.00;;;;;;5003514;28;20395;-74
2024/03/26 07:41:50;;;;;;;4.30;2.08;;;13.40;74.00;;;;;;5001888;28;20042;-74
2024/03/26 07:44:16;;;;;;;4.50;2.30;;;13.40;73.60;;;;;;5017933;27;20037;-75
2024/03/26 07:46:45;;;;;;;3.88;1.90;;;13.40;73.90;;;;;;5018586;28;20033;-75
2024/03/26 07:49:11;;;;;;;4.50;2.25;;;13.50;73.70;;;;;;5010807;28;20461;-75
2024/03/26 07:51:38;;;;;;;6.53;2.47;;;13.50;73.60;;;;;;5020563;28;20086;-75
2024/03/26 07:54:05;;;;;;;3.90;1.98;;;13.50;73.30;;;;;;5018248;28;20657;-75
2024/03/26 07:56:31;;;;;;;5.35;2.10;;;13.50;73.30;;;;;;5019333;28;20034;-74
2024/03/26 07:58:57;;;;;;;3.72;2.08;;;13.60;72.90;;;;;;5018627;28;20046;-75
2024/03/26 08:01:23;;;;;;;3.00;1.70;;;13.60;72.90;;;;;;5018503;27;20061;-74
2024/03/26 08:03:53;;;;;;;4.13;2.35;;;13.60;72.90;;;;;;5020462;28;20487;-76
2024/03/26 08:06:19;;;;;;;6.15;2.38;;;13.60;73.30;;;;;;5001604;28;20668;-74
2024/03/26 08:08:50;;;;;;;4.53;1.95;;;13.60;73.20;;;;;;5019745;28;20442;-74
2024/03/26 08:11:19;;;;;;;2.95;1.70;;;13.70;72.70;;;;;;5001995;28;20048;-75
2024/03/26 08:13:45;;;;;;;3.78;2.10;;;13.70;72.40;;;;;;5002339;28;20535;-75
2024/03/26 08:16:11;;;;;;;5.05;2.00;;;13.70;72.10;;;;;;5019174;27;20117;-74
2024/03/26 08:18:37;;;;;;;5.88;2.50;;;13.70;71.80;;;;;;5018710;27;20042;-74
2024/03/26 08:21:04;;;;;;;5.88;3.13;;;13.70;71.70;;;;;;5018134;27;20032;-74
2024/03/26 08:23:30;;;;;;;3.22;2.10;;;13.80;71.80;;;;;;5017599;28;20127;-75
2024/03/26 08:25:56;;;;;;;5.10;2.55;;;13.70;71.90;;;;;;5018658;28;20524;-75
2024/03/26 08:28:23;;;;;;;4.32;2.70;;;13.80;72.00;;;;;;5018950;28;20391;-75
2024/03/26 08:30:49;;;;;;;5.10;3.20;;;13.80;72.00;;;;;;5001012;28;20128;-74
2024/03/26 08:33:15;;;;;;;5.18;2.85;;;13.80;72.00;;;;;;4988906;28;20633;-75
2024/03/26 08:35:42;;;;;;;5.10;2.75;;;13.80;72.50;;;;;;5002667;28;20037;-75
2024/03/26 08:38:08;;;;;;;4.18;2.85;;;13.90;72.30;;;;;;5018791;28;20049;-75
2024/03/26 08:40:35;;;;;;;4.70;2.95;;;13.90;72.90;;;;;;5018749;28;20124;-75
2024/03/26 08:43:01;;;;;;;4.10;2.60;;;13.90;72.60;;;;;;5017807;28;20826;-75
2024/03/26 08:45:28;;;;;;;5.88;2.58;;;13.90;72.40;;;;;;4991603;28;20053;-76
2024/03/26 08:47:55;;;;;;;4.38;2.53;;;13.90;72.60;;;;;;4985938;28;20110;-75
2024/03/26 08:50:21;;;;;;;6.88;3.33;;;14.00;72.90;;;;;;5017936;28;21060;-75
2024/03/26 08:55:32;;;;;;;4.97;2.47;;;14.00;72.30;;;;;;5017615;27;20365;-75
2024/03/26 08:57:58;;;;;;;3.30;2.08;;;14.00;72.20;;;;;;5016812;28;20468;-75
2024/03/26 09:00:26;;;;;;;3.88;2.10;;;14.00;72.60;;;;;;5000130;28;20544;-80
2024/03/26 09:02:53;;;;;;;3.72;2.00;;;14.00;72.80;;;;;;5001731;28;20041;-79
2024/03/26 09:05:20;;;;;;;2.65;1.42;;;14.10;73.60;;;;;;4990603;28;20038;-78
2024/03/26 09:07:46;;;;;;;2.72;1.50;;;14.10;75.00;;;;;;5002107;28;20030;-80
2024/03/26 09:10:12;;;;;;;3.67;1.75;;;14.20;74.80;;;;;;5000941;28;20034;-81
2024/03/26 09:12:38;;;;;;;3.17;1.90;;;14.10;74.00;;;;;;5002091;28;20026;-81
2024/03/26 09:15:05;;;;;;;4.20;1.90;;;14.20;73.20;;;;;;5000174;28;20395;-79
2024/03/26 09:17:32;;;;;;;6.85;2.20;;;14.20;73.10;;;;;;5000565;28;20133;-80
2024/03/26 09:19:58;;;;;;;2.63;1.90;;;14.20;72.90;;;;;;4988972;28;20037;-80
2024/03/26 09:22:24;;;;;;;3.33;2.05;;;14.20;72.70;;;;;;4989103;28;20725;-80
2024/03/26 09:24:51;;;;;;;2.72;1.60;;;14.20;72.70;;;;;;5018894;28;20732;-81
2024/03/26 09:27:17;;;;;;;4.82;1.95;;;14.20;72.60;;;;;;4988293;28;20098;-79
2024/03/26 09:29:43;;;;;;;2.88;1.83;;;14.30;72.50;;;;;;5000783;28;20184;-81
2024/03/26 09:32:09;;;;;;;3.03;1.83;;;14.20;72.30;;;;;;5005005;28;20629;-81
2024/03/26 09:34:35;;;;;;;3.75;1.63;;;14.20;72.30;;;;;;5006574;28;20037;-80
2024/03/26 09:37:02;;;;;;;2.58;1.98;;;14.30;72.30;;;;;;5017919;28;20394;-81
2024/03/26 09:39:28;;;;;;;1.98;1.80;;;14.20;72.60;;;;;;5001817;28;20100;-81
2024/03/26 09:41:57;;;;;;;3.28;1.45;;;14.30;72.70;;;;;;5018475;28;20461;-80
2024/03/26 09:44:27;;;;;;;4.38;1.80;;;14.30;73.00;;;;;;5017216;28;20445;-81
2024/03/26 09:46:55;;;;;;;3.45;1.90;;;14.30;72.80;;;;;;5000517;28;20037;-80
2024/03/26 09:49:23;;;;;;;3.08;1.65;;;14.30;72.40;;;;;;5017355;28;20511;-80
2024/03/26 09:51:52;;;;;;;2.13;1.70;;;14.30;72.70;;;;;;5000078;28;20051;-79
2024/03/26 09:54:19;;;;;;;3.28;1.95;;;14.30;73.00;;;;;;4999172;28;20034;-81
2024/03/26 09:56:46;;;;;;;4.40;1.98;;;14.30;72.90;;;;;;5001012;28;20033;-81
2024/03/26 09:59:12;;;;;;;3.63;1.60;;;14.30;73.30;;;;;;5000809;28;21461;-79
2024/03/26 10:01:40;;;;;;;2.50;1.73;;;14.30;73.30;;;;;;4998580;28;20038;-81
2024/03/26 10:04:06;;;;;;;2.45;1.80;;;14.30;73.30;;;;;;5017259;27;20044;-81
2024/03/26 10:06:36;;;;;;;4.20;2.38;;;14.30;73.20;;;;;;5001112;28;20038;-79
2024/03/26 10:09:03;;;;;;;3.90;2.20;;;14.30;73.10;;;;;;4997832;28;20036;-82
2024/03/26 10:11:47;;;;;;;2.28;1.70;;;14.30;73.60;;;;;;5000666;28;20116;-83
2024/03/26 10:14:14;;;;;;;3.05;1.88;;;14.30;73.80;;;;;;4999366;28;20087;-80
2024/03/26 10:16:43;;;;;;;2.40;1.73;;;14.30;73.70;;;;;;4997238;28;20040;-80
2024/03/26 10:19:09;;;;;;;4.00;2.05;;;14.30;73.80;;;;;;4987222;28;20053;-79
2024/03/26 10:21:35;;;;;;;4.90;2.22;;;14.30;73.70;;;;;;4988429;28;20033;-80
2024/03/26 10:24:01;;;;;;;7.82;2.58;;;14.30;73.90;;;;;;5015230;28;20139;-80
2024/03/26 10:26:28;;;;;;;2.42;1.67;;;14.30;74.30;;;;;;5018817;28;20076;-80
2024/03/26 10:28:54;;;;;;;3.47;2.10;;;14.30;73.80;;;;;;5017705;28;20038;-81
2024/03/26 10:31:20;;;;;;;4.68;1.80;;;14.30;73.60;;;;;;5016869;28;20056;-81
2024/03/26 10:33:47;;;;;;;2.22;1.38;;;14.30;74.20;;;;;;5019732;28;20472;-81
2024/03/26 10:36:16;;;;;;;1.88;1.30;;;14.30;73.40;;;;;;5018340;28;20041;-82
2024/03/26 10:38:45;;;;;;;1.88;1.30;;;14.30;73.20;;;;;;5017797;28;20046;-82
2024/03/26 10:41:29;;;;;;;2.63;1.52;;;14.30;73.00;;;;;;4988150;28;20038;-81
2024/03/26 10:43:56;;;;;;;3.60;1.50;;;14.30;73.30;;;;;;5000996;28;20535;-83
2024/03/26 10:46:23;;;;;;;1.98;1.38;;;14.30;73.30;;;;;;5017747;28;20046;-84
2024/03/26 10:48:50;;;;;;;4.32;1.60;;;14.30;73.20;;;;;;4988437;28;20407;-80
2024/03/26 10:51:17;;;;;;;3.05;1.50;;;14.30;73.40;;;;;;5018067;28;20136;-81
2024/03/26 10:53:43;;;;;;;1.85;1.50;;;14.30;73.40;;;;;;4999805;28;20040;-81
2024/03/26 10:56:11;;;;;;;3.00;1.70;;;14.30;73.30;;;;;;5004223;28;20058;-81
2024/03/26 10:58:37;;;;;;;4.18;1.45;;;14.30;73.30;;;;;;5018468;28;20046;-83
2024/03/26 11:01:05;;;;;;;4.22;1.55;;;14.30;73.20;;;;;;4998515;28;20086;-81
2024/03/26 11:03:33;;;;;;;1.45;1.20;;;14.30;73.10;;;;;;5016503;28;20087;-84
2024/03/26 11:06:00;;;;;;;4.13;1.48;;;14.30;73.20;;;;;;4983608;28;20090;-83
2024/03/26 11:08:27;;;;;;;2.33;1.45;;;14.30;73.00;;;;;;4999488;28;20030;-82
2024/03/26 11:11:00;;;;;;;3.13;2.70;;;14.30;73.60;;;;;;5000338;28;20048;-83
2024/03/26 11:13:32;;;;;;;5.38;4.88;;;14.30;74.00;;;;;;5015875;28;20526;-81
2024/03/26 11:16:05;;;;;;;7.70;6.90;;;14.30;75.30;;;;;;4999812;28;20044;-81
2024/03/26 11:18:39;;;;;;;10.95;8.07;;;14.40;76.50;;;;;;4990901;28;20050;-83
2024/03/26 11:21:11;;;;;;;10.68;9.10;;;14.30;77.10;;;;;;5006809;28;20037;-79
2024/03/26 11:23:43;;;;;;;22.35;19.65;;;14.40;77.40;;;;;;5006653;28;20071;-81
2024/03/26 11:26:29;;;;;;;27.75;24.85;;;14.40;83.60;;;;;;5020095;27;20037;-84
2024/03/26 11:28:58;;;;;;;21.00;18.80;;;14.50;85.90;;;;;;5005673;28;20032;-79
2024/03/26 11:31:25;;;;;;;18.75;14.93;;;14.50;83.50;;;;;;5022827;28;20033;-84
2024/03/26 11:33:53;;;;;;;11.02;9.93;;;14.60;81.30;;;;;;5006308;28;20082;-88
2024/03/26 11:36:20;;;;;;;8.70;7.80;;;14.50;78.90;;;;;;4978608;28;20064;-73
2024/03/26 11:38:48;;;;;;;11.60;8.93;;;14.50;78.20;;;;;;5019311;27;20398;-77
2024/03/26 11:41:18;;;;;;;9.88;8.80;;;14.60;81.10;;;;;;5021953;28;20037;-75
2024/03/26 11:43:44;;;;;;;10.00;8.13;;;14.70;82.20;;;;;;5019975;28;20037;-75
2024/03/26 11:46:13;;;;;;;9.93;7.28;;;14.80;82.70;;;;;;5018802;27;20542;-76
2024/03/26 11:48:39;;;;;;;7.88;6.60;;;14.90;82.70;;;;;;5021464;28;20033;-75
2024/03/26 11:51:05;;;;;;;6.78;6.10;;;15.00;82.90;;;;;;5019673;28;20029;-75
2024/03/26 11:53:36;;;;;;;6.13;5.47;;;15.00;82.80;;;;;;5005062;28;20034;-75
2024/03/26 11:56:05;;;;;;;8.63;6.00;;;15.10;82.60;;;;;;5001039;28;20037;-75
2024/03/26 11:58:31;;;;;;;6.22;5.10;;;15.10;82.30;;;;;;5018839;28;20632;-76
2024/03/26 12:00:57;;;;;;;7.43;4.80;;;15.20;82.00;;;;;;5005437;28;20062;-75
2024/03/26 12:03:23;;;;;;;4.68;4.28;;;15.30;81.80;;;;;;5017866;28;20037;-76
2024/03/26 12:05:50;;;;;;;4.80;4.00;;;15.40;81.60;;;;;;5019299;27;20034;-76
2024/03/26 12:08:16;;;;;;;4.03;3.70;;;15.40;81.40;;;;;;5018100;27;20094;-75
2024/03/26 12:10:42;;;;;;;7.20;3.70;;;15.50;81.20;;;;;;5019363;27;20037;-75
2024/03/26 12:13:09;;;;;;;4.00;3.42;;;15.60;81.00;;;;;;5018383;27;20029;-76
2024/03/26 12:15:35;;;;;;;3.60;3.30;;;15.60;81.10;;;;;;5019671;27;20033;-76
2024/03/26 12:18:02;;;;;;;3.40;3.10;;;15.70;80.80;;;;;;5005624;28;20566;-76
2024/03/26 12:20:28;;;;;;;4.60;3.10;;;15.70;80.40;;;;;;5005628;28;20030;-77
2024/03/26 12:22:56;;;;;;;3.47;2.72;;;15.80;80.20;;;;;;4997156;28;20034;-76
2024/03/26 12:25:22;;;;;;;3.63;2.53;;;15.80;79.80;;;;;;5018949;28;20600;-77
2024/03/26 12:27:48;;;;;;;3.13;2.33;;;15.80;79.80;;;;;;5019074;27;20038;-76
2024/03/26 12:30:14;;;;;;;2.50;2.30;;;15.90;80.00;;;;;;5018555;27;20091;-75
2024/03/26 12:32:40;;;;;;;2.78;2.42;;;15.90;79.60;;;;;;5018534;28;20034;-76
2024/03/26 12:35:08;;;;;;;2.40;2.17;;;16.00;79.30;;;;;;5000268;28;20038;-76
2024/03/26 12:37:34;;;;;;;2.00;1.80;;;16.00;79.30;;;;;;5018042;28;20045;-75
2024/03/26 12:40:00;;;;;;;2.40;1.83;;;16.10;79.00;;;;;;5019365;28;20030;-74
2024/03/26 12:42:26;;;;;;;1.98;1.70;;;16.10;78.80;;;;;;5000413;28;20380;-76
2024/03/26 12:44:52;;;;;;;1.65;1.45;;;16.20;79.00;;;;;;5018582;27;20038;-76
2024/03/26 12:47:18;;;;;;;2.80;1.80;;;16.20;78.30;;;;;;5020783;28;20038;-77
2024/03/26 12:49:44;;;;;;;2.65;1.70;;;16.20;78.30;;;;;;4998800;28;20120;-76